Brewster, Minnesota
Current Conditions -  °F | °C
As of 6:55 PM on Friday 24 Oct 2014 (Local Time) from KOTG Reporting Station
Clear Clear  
Wind Chill: 59°   Ceiling: Unl
Heat Index: 59°   Visibility: 10mi
Dew Point: 39°   Wind: 3mph
Humidity: 48%   Direction: 270°W
Pressure: 29.94"   Gusts: NA
Location:  43.7°N, 95.47°W
Report Text: KOTG 242355Z AUTO 27003KT 10SM CLR 15/04 A2994 RMK AO1 10230 20150 402300100 52017
Loading
Personal Weather Stations






























Interactive Weather Map
Tropical Storm Tracking
New forecast layout! Learn more

10-Day Weather Forecast

Advertisements
Track Severe Weather on mobile